createdAt,value
2018-07-05T00:01:42.336Z,21.40
2018-07-05T00:06:55.343Z,21.20
2018-07-05T00:09:34.999Z,21.20
2018-07-05T00:12:14.554Z,21.20
2018-07-05T00:14:54.188Z,21.10
2018-07-05T00:17:33.695Z,21.00
2018-07-05T00:20:13.390Z,21.00
2018-07-05T00:22:53.011Z,21.00
2018-07-05T00:25:32.460Z,21.00
2018-07-05T00:28:11.958Z,21.00
2018-07-05T00:30:51.641Z,21.00
2018-07-05T00:33:31.267Z,21.10
2018-07-05T00:36:10.697Z,21.00
2018-07-05T00:41:23.829Z,21.00
2018-07-05T00:44:03.656Z,21.10
2018-07-05T00:46:43.328Z,21.00
2018-07-05T00:49:22.888Z,21.00
2018-07-05T00:52:02.580Z,20.90
2018-07-05T00:54:42.309Z,20.80
2018-07-05T00:57:21.883Z,20.80
2018-07-05T01:00:01.488Z,20.90
2018-07-05T01:02:41.071Z,20.90
2018-07-05T01:05:20.719Z,20.90
2018-07-05T01:08:00.157Z,20.80
2018-07-05T01:10:39.823Z,20.80
2018-07-05T01:13:19.212Z,20.80
2018-07-05T01:15:58.818Z,20.70
2018-07-05T01:18:38.723Z,20.60
2018-07-05T01:21:18.244Z,20.60
2018-07-05T01:23:57.903Z,20.60
2018-07-05T01:26:37.498Z,20.60
2018-07-05T01:29:17.236Z,20.50
2018-07-05T01:31:56.814Z,20.50
2018-07-05T01:34:36.376Z,20.60
2018-07-05T01:37:15.980Z,20.50
2018-07-05T01:39:55.775Z,20.50
2018-07-05T01:42:35.182Z,20.50
2018-07-05T01:45:15.077Z,20.40
2018-07-05T01:47:54.927Z,20.40
2018-07-05T01:50:34.542Z,20.30
2018-07-05T01:53:14.112Z,20.30
2018-07-05T01:58:27.204Z,20.20
2018-07-05T02:01:06.879Z,20.20
2018-07-05T02:03:46.521Z,20.10
2018-07-05T02:06:26.015Z,20.00
2018-07-05T02:09:05.554Z,20.00
2018-07-05T02:11:45.145Z,19.90
2018-07-05T02:16:58.165Z,19.80
2018-07-05T02:19:37.912Z,19.70
2018-07-05T02:22:17.491Z,19.70
2018-07-05T02:24:56.932Z,19.70
2018-07-05T02:27:36.707Z,19.60
2018-07-05T02:30:16.241Z,19.60
2018-07-05T02:32:55.775Z,19.60
2018-07-05T02:35:35.483Z,19.50
2018-07-05T02:38:20.622Z,19.60
2018-07-05T02:41:00.417Z,19.50
2018-07-05T02:43:40.052Z,19.60
2018-07-05T02:46:19.679Z,19.50
2018-07-05T02:48:59.379Z,19.50
2018-07-05T02:51:39.129Z,19.40
2018-07-05T02:54:18.939Z,19.40
2018-07-05T02:56:58.631Z,19.40
2018-07-05T02:59:38.428Z,19.40
2018-07-05T03:02:18.280Z,19.40
2018-07-05T03:04:57.792Z,19.30
2018-07-05T03:07:37.250Z,19.30
2018-07-05T03:10:16.739Z,19.30
2018-07-05T03:12:56.385Z,19.30
2018-07-05T03:15:35.979Z,19.20
2018-07-05T03:18:15.615Z,19.30
2018-07-05T03:20:55.228Z,19.40
2018-07-05T03:23:35.387Z,19.30
2018-07-05T03:26:15.035Z,19.40
2018-07-05T03:31:28.200Z,19.30
2018-07-05T03:36:41.214Z,19.30
2018-07-05T03:39:20.899Z,19.30
2018-07-05T03:42:00.624Z,19.40
2018-07-05T03:44:40.385Z,19.50
2018-07-05T03:47:20.030Z,19.60
2018-07-05T03:49:59.640Z,19.70
2018-07-05T03:52:39.277Z,19.80
2018-07-05T03:55:18.815Z,19.90
2018-07-05T03:57:58.495Z,19.90
2018-07-05T04:00:38.148Z,20.00
2018-07-05T04:03:17.847Z,20.10
2018-07-05T04:08:30.903Z,20.40
2018-07-05T04:11:10.637Z,20.60
2018-07-05T04:13:50.375Z,20.70
2018-07-05T04:16:29.900Z,21.00
2018-07-05T04:19:09.395Z,21.20
2018-07-05T04:21:48.891Z,21.30
2018-07-05T04:27:01.963Z,21.50
2018-07-05T04:32:15.047Z,21.70
2018-07-05T04:34:54.608Z,21.70
2018-07-05T04:37:34.244Z,21.70
2018-07-05T04:40:13.845Z,21.30
2018-07-05T04:42:53.347Z,21.30
2018-07-05T04:48:06.465Z,21.50
2018-07-05T04:50:46.197Z,21.60
2018-07-05T04:53:25.778Z,21.70
2018-07-05T04:56:05.414Z,21.60
2018-07-05T04:58:46.440Z,21.60
2018-07-05T05:01:26.052Z,21.70
2018-07-05T05:04:05.792Z,21.70
2018-07-05T05:06:45.534Z,21.80
2018-07-05T05:09:25.123Z,21.80
2018-07-05T05:12:05.021Z,21.80
2018-07-05T05:14:44.459Z,21.80
2018-07-05T05:17:24.097Z,21.90
2018-07-05T05:20:03.872Z,21.90
2018-07-05T05:22:43.284Z,22.00
2018-07-05T05:27:56.427Z,22.20
2018-07-05T05:30:36.087Z,22.30
2018-07-05T05:33:15.693Z,22.40
2018-07-05T05:35:55.397Z,22.50
2018-07-05T05:38:34.987Z,22.50
2018-07-05T05:43:48.099Z,22.60
2018-07-05T05:46:27.707Z,22.60
2018-07-05T05:49:07.397Z,22.70
2018-07-05T05:51:47.125Z,22.70
2018-07-05T05:59:33.853Z,23.00
2018-07-05T06:02:13.364Z,23.10
2018-07-05T06:04:53.177Z,23.20
2018-07-05T06:07:32.924Z,23.30
2018-07-05T06:10:12.652Z,23.30
2018-07-05T06:12:52.162Z,23.40
2018-07-05T06:15:31.784Z,23.50
2018-07-05T06:18:11.456Z,23.70
2018-07-05T06:20:51.291Z,23.70
2018-07-05T06:23:31.083Z,23.80
2018-07-05T06:26:10.650Z,23.80
2018-07-05T06:28:50.272Z,23.90
2018-07-05T06:31:29.976Z,24.00
2018-07-05T06:34:10.553Z,24.00
2018-07-05T06:36:50.467Z,24.10
2018-07-05T06:39:30.226Z,24.20
2018-07-05T06:42:10.370Z,24.30
2018-07-05T06:47:24.358Z,24.50
2018-07-05T06:52:37.696Z,24.40
2018-07-05T06:55:17.303Z,24.70
2018-07-05T07:00:31.723Z,25.10
2018-07-05T07:03:11.273Z,25.00
2018-07-05T07:05:50.721Z,24.90
2018-07-05T07:08:30.476Z,24.70
2018-07-05T07:13:43.825Z,24.60
2018-07-05T07:16:23.628Z,24.70
2018-07-05T07:21:36.897Z,24.90
2018-07-05T07:24:16.484Z,25.00
2018-07-05T07:26:56.212Z,25.40
2018-07-05T07:32:09.548Z,26.10
2018-07-05T07:34:49.116Z,26.40
2018-07-05T07:37:28.612Z,26.70
2018-07-05T07:40:08.365Z,27.00
2018-07-05T07:42:35.591Z,27.20
2018-07-05T07:45:02.798Z,27.40
2018-07-05T07:47:29.945Z,27.60
2018-07-05T07:49:57.084Z,27.70
2018-07-05T07:52:24.225Z,27.70
2018-07-05T07:54:51.343Z,27.90
2018-07-05T07:57:18.480Z,28.20
2018-07-05T08:02:13.015Z,28.30
2018-07-05T08:04:40.412Z,28.20
2018-07-05T08:07:07.553Z,28.20
2018-07-05T08:12:02.133Z,28.40
2018-07-05T08:14:30.180Z,28.20
2018-07-05T08:16:57.324Z,28.20
2018-07-05T08:21:51.912Z,28.30
2018-07-05T08:24:19.027Z,28.50
2018-07-05T08:26:46.221Z,28.50
2018-07-05T08:29:13.336Z,28.70
2018-07-05T08:31:40.578Z,29.00
2018-07-05T08:34:07.785Z,28.90
2018-07-05T08:36:35.012Z,28.80
2018-07-05T08:39:02.180Z,28.50
2018-07-05T08:41:29.350Z,28.30
2018-07-05T08:43:56.544Z,28.10
2018-07-05T08:46:23.691Z,27.80
2018-07-05T08:51:18.218Z,27.50
2018-07-05T08:58:40.896Z,27.70
2018-07-05T09:01:08.072Z,27.80
2018-07-05T09:03:35.385Z,28.00
2018-07-05T09:06:02.962Z,27.90
2018-07-05T09:08:31.028Z,28.00
2018-07-05T09:13:25.660Z,28.00
2018-07-05T09:18:21.326Z,28.20
2018-07-05T09:20:48.425Z,28.30
2018-07-05T09:23:15.672Z,28.20
2018-07-05T09:25:42.745Z,28.30
2018-07-05T09:28:09.909Z,28.20
2018-07-05T09:30:37.057Z,28.20
2018-07-05T09:33:04.187Z,28.10
2018-07-05T09:35:32.129Z,28.30
2018-07-05T09:37:59.264Z,28.50
2018-07-05T09:40:26.464Z,28.50
2018-07-05T09:42:53.724Z,28.50
2018-07-05T09:45:21.240Z,28.50
2018-07-05T09:47:48.387Z,28.70
2018-07-05T09:50:15.524Z,28.70
2018-07-05T09:52:42.721Z,28.80
2018-07-05T09:55:10.891Z,28.90
2018-07-05T09:57:38.170Z,28.80
2018-07-05T10:00:05.695Z,29.10
2018-07-05T10:02:33.121Z,29.40
2018-07-05T10:07:27.888Z,29.60
2018-07-05T10:09:55.040Z,29.50
2018-07-05T10:12:22.241Z,29.70
2018-07-05T10:14:49.504Z,29.80
2018-07-05T10:17:16.704Z,30.00
2018-07-05T10:19:43.839Z,30.00
2018-07-05T10:22:10.968Z,30.10
2018-07-05T10:24:38.120Z,29.80
2018-07-05T10:27:05.373Z,29.60
2018-07-05T10:29:44.986Z,29.60
2018-07-05T10:32:24.534Z,29.80
2018-07-05T10:34:52.207Z,30.00
2018-07-05T10:37:22.415Z,30.10
2018-07-05T10:40:02.108Z,30.10
2018-07-05T10:42:41.423Z,30.00
2018-07-05T10:45:20.776Z,30.20
2018-07-05T10:48:00.932Z,30.00
2018-07-05T10:50:40.621Z,30.00
2018-07-05T10:53:20.305Z,30.00
2018-07-05T10:56:00.060Z,30.10
2018-07-05T10:58:39.592Z,30.30
2018-07-05T11:01:19.080Z,30.40
2018-07-05T11:06:32.268Z,30.70
2018-07-05T11:09:12.026Z,30.70
2018-07-05T11:16:58.378Z,30.80
2018-07-05T11:19:37.982Z,30.60
2018-07-05T11:22:17.555Z,30.60
2018-07-05T11:24:57.481Z,30.60
2018-07-05T11:27:37.148Z,30.40
2018-07-05T11:30:16.618Z,30.20
2018-07-05T11:32:56.300Z,30.20
2018-07-05T11:35:35.755Z,30.30
2018-07-05T11:38:16.351Z,30.50
2018-07-05T11:40:55.912Z,30.40
2018-07-05T11:43:35.411Z,30.00
2018-07-05T11:46:14.987Z,30.10
2018-07-05T11:48:56.062Z,29.80
2018-07-05T11:51:36.197Z,29.80
2018-07-05T11:56:49.634Z,29.90
2018-07-05T11:59:29.619Z,30.00
2018-07-05T12:02:09.213Z,30.00
2018-07-05T12:04:49.226Z,30.10
2018-07-05T12:07:29.051Z,30.10
2018-07-05T12:10:08.709Z,30.20
2018-07-05T12:12:48.508Z,30.10
2018-07-05T12:15:28.169Z,30.10
2018-07-05T12:18:08.020Z,30.10
2018-07-05T12:20:47.538Z,30.20
2018-07-05T12:23:27.210Z,30.40
2018-07-05T12:26:06.887Z,30.60
2018-07-05T12:28:46.484Z,30.90
2018-07-05T12:33:59.618Z,31.10
2018-07-05T12:36:39.128Z,31.30
2018-07-05T12:39:18.885Z,31.40
2018-07-05T12:41:58.867Z,31.40
2018-07-05T12:44:38.354Z,31.50
2018-07-05T12:47:18.011Z,31.10
2018-07-05T12:49:57.721Z,31.10
2018-07-05T12:52:37.343Z,31.20
2018-07-05T12:57:51.349Z,31.50
2018-07-05T13:00:31.056Z,31.40
2018-07-05T13:03:10.629Z,31.20
2018-07-05T13:05:50.247Z,31.00
2018-07-05T13:08:29.746Z,31.10
2018-07-05T13:11:09.380Z,31.20
2018-07-05T13:13:49.910Z,31.30
2018-07-05T13:16:29.626Z,31.30
2018-07-05T13:19:09.372Z,31.40
2018-07-05T13:21:48.932Z,31.40
2018-07-05T13:24:28.557Z,31.20
2018-07-05T13:27:08.153Z,31.40
2018-07-05T13:29:47.808Z,31.20
2018-07-05T13:32:27.247Z,31.40
2018-07-05T13:35:06.706Z,31.40
2018-07-05T13:37:46.276Z,31.60
2018-07-05T13:40:25.819Z,31.70
2018-07-05T13:43:05.547Z,31.50
2018-07-05T13:45:45.320Z,31.50
2018-07-05T13:48:24.787Z,31.40
2018-07-05T13:51:04.397Z,31.20
2018-07-05T13:56:17.520Z,31.30
2018-07-05T13:58:57.164Z,31.20
2018-07-05T14:01:36.916Z,31.10
2018-07-05T14:04:16.810Z,30.90
2018-07-05T14:06:56.365Z,31.00
2018-07-05T14:09:35.848Z,31.20
2018-07-05T14:17:11.309Z,31.70
2018-07-05T14:19:51.741Z,31.60
2018-07-05T14:22:32.516Z,31.30
2018-07-05T14:25:12.277Z,30.80
2018-07-05T14:27:52.495Z,30.80
2018-07-05T14:30:32.308Z,31.00
2018-07-05T14:35:45.310Z,30.70
2018-07-05T14:38:24.978Z,30.50
2018-07-05T14:41:04.519Z,30.60
2018-07-05T14:43:44.232Z,30.70
2018-07-05T14:46:24.018Z,31.00
2018-07-05T14:49:03.662Z,31.10
2018-07-05T14:54:17.302Z,31.20
2018-07-05T14:56:57.054Z,31.40
2018-07-05T14:59:36.604Z,31.30
2018-07-05T15:02:16.246Z,31.40
2018-07-05T15:04:56.848Z,31.40
2018-07-05T15:07:36.261Z,31.60
2018-07-05T15:10:16.035Z,31.90
2018-07-05T15:12:55.696Z,31.90
2018-07-05T15:15:35.393Z,31.90
2018-07-05T15:18:15.133Z,31.60
2018-07-05T15:20:54.899Z,31.80
2018-07-05T15:23:34.682Z,32.10
2018-07-05T15:26:14.628Z,32.30
2018-07-05T15:28:54.517Z,31.80
2018-07-05T15:31:34.235Z,31.80
2018-07-05T15:34:14.012Z,31.90
2018-07-05T15:36:53.894Z,32.00
2018-07-05T15:39:34.558Z,32.20
2018-07-05T15:42:15.433Z,32.30
2018-07-05T15:44:55.022Z,32.50
2018-07-05T15:47:35.032Z,33.40
2018-07-05T15:50:14.886Z,33.90
2018-07-05T15:52:56.318Z,33.50
2018-07-05T15:55:35.939Z,33.40
2018-07-05T15:58:15.663Z,34.80
2018-07-05T16:03:29.020Z,36.00
2018-07-05T16:06:08.754Z,36.40
2018-07-05T16:08:48.432Z,37.50
2018-07-05T16:11:27.827Z,37.70
2018-07-05T16:14:07.441Z,37.90
2018-07-05T16:16:47.084Z,37.80
2018-07-05T16:19:26.815Z,38.50
2018-07-05T16:22:06.467Z,37.60
2018-07-05T16:24:46.149Z,38.30
2018-07-05T16:27:25.800Z,39.80
2018-07-05T16:30:05.679Z,40.50
2018-07-05T16:32:45.482Z,40.30
2018-07-05T16:35:25.321Z,39.90
2018-07-05T16:38:04.936Z,40.50
2018-07-05T16:40:44.668Z,39.60
2018-07-05T16:45:58.059Z,40.20
2018-07-05T16:48:38.492Z,39.90
2018-07-05T16:51:18.009Z,40.20
2018-07-05T16:53:57.744Z,39.70
2018-07-05T16:56:37.304Z,39.30
2018-07-05T16:59:16.862Z,39.40
2018-07-05T17:01:58.257Z,38.70
2018-07-05T17:04:37.884Z,37.50
2018-07-05T17:07:17.663Z,37.00
2018-07-05T17:09:57.303Z,38.30
2018-07-05T17:12:36.859Z,38.90
2018-07-05T17:15:16.513Z,37.30
2018-07-05T17:17:56.230Z,38.10
2018-07-05T17:20:35.895Z,38.80
2018-07-05T17:23:15.447Z,38.20
2018-07-05T17:25:55.200Z,37.90
2018-07-05T17:28:34.960Z,37.80
2018-07-05T17:31:14.783Z,38.20
2018-07-05T17:33:54.636Z,37.90
2018-07-05T17:36:34.433Z,37.80
2018-07-05T17:39:13.996Z,38.10
2018-07-05T17:41:53.850Z,37.60
2018-07-05T17:44:33.336Z,36.90
2018-07-05T17:47:13.205Z,36.70
2018-07-05T17:49:53.344Z,36.70
2018-07-05T17:52:32.991Z,36.80
2018-07-05T17:55:12.843Z,35.60
2018-07-05T17:57:52.669Z,35.80
2018-07-05T18:00:32.797Z,36.50
2018-07-05T18:03:12.267Z,35.90
2018-07-05T18:05:52.083Z,35.50
2018-07-05T18:08:31.592Z,35.20
2018-07-05T18:16:18.687Z,35.40
2018-07-05T18:18:58.447Z,34.80
2018-07-05T18:21:38.209Z,34.80
2018-07-05T18:26:51.451Z,34.60
2018-07-05T18:29:31.117Z,34.30
2018-07-05T18:32:10.647Z,34.20
2018-07-05T18:34:50.223Z,33.80
2018-07-05T18:40:03.220Z,34.00
2018-07-05T18:42:42.763Z,33.60
2018-07-05T18:47:56.122Z,31.10
2018-07-05T18:50:35.770Z,29.70
2018-07-05T18:53:15.369Z,29.00
2018-07-05T18:55:55.010Z,28.60
2018-07-05T18:58:34.620Z,28.20
2018-07-05T19:01:14.354Z,27.80
2018-07-05T19:03:53.832Z,27.50
2018-07-05T19:06:34.323Z,27.40
2018-07-05T19:09:13.886Z,27.20
2018-07-05T19:11:53.764Z,27.10
2018-07-05T19:17:07.659Z,26.60
2018-07-05T19:19:47.299Z,26.40
2018-07-05T19:22:27.113Z,26.20
2018-07-05T19:25:06.831Z,26.10
2018-07-05T19:27:47.880Z,25.90
2018-07-05T19:30:27.359Z,25.80
2018-07-05T19:33:06.975Z,25.70
2018-07-05T19:35:46.619Z,25.60
2018-07-05T19:38:26.390Z,25.40
2018-07-05T19:41:06.161Z,25.30
2018-07-05T19:43:45.923Z,25.20
2018-07-05T19:46:25.999Z,25.00
2018-07-05T19:49:05.744Z,24.90
2018-07-05T19:51:45.541Z,24.80
2018-07-05T19:54:25.001Z,24.70
2018-07-05T19:57:04.517Z,24.60
2018-07-05T19:59:44.127Z,24.50
2018-07-05T20:02:24.028Z,24.40
2018-07-05T20:05:03.813Z,24.30
2018-07-05T20:07:43.403Z,24.20
2018-07-05T20:10:23.123Z,24.10
2018-07-05T20:13:02.785Z,24.00
2018-07-05T20:15:42.503Z,23.90
2018-07-05T20:18:22.044Z,23.80
2018-07-05T20:21:01.839Z,23.70
2018-07-05T20:23:41.483Z,23.70
2018-07-05T20:26:21.501Z,23.60
2018-07-05T20:29:01.109Z,23.50
2018-07-05T20:31:40.564Z,23.40
2018-07-05T20:34:20.107Z,23.30
2018-07-05T20:36:59.857Z,23.20
2018-07-05T20:39:39.313Z,23.20
2018-07-05T20:42:18.704Z,23.20
2018-07-05T20:44:59.398Z,23.10
2018-07-05T20:50:12.436Z,23.10
2018-07-05T20:52:52.072Z,23.00
2018-07-05T20:55:31.950Z,23.00
2018-07-05T20:58:11.697Z,23.00
2018-07-05T21:00:51.590Z,22.90
2018-07-05T21:03:31.395Z,22.90
2018-07-05T21:06:10.860Z,22.80
2018-07-05T21:08:50.395Z,22.80
2018-07-05T21:11:29.919Z,22.70
2018-07-05T21:14:09.571Z,22.60
2018-07-05T21:16:49.575Z,22.50
2018-07-05T21:19:29.367Z,22.50
2018-07-05T21:22:09.326Z,22.50
2018-07-05T21:24:49.091Z,22.30
2018-07-05T21:27:28.994Z,22.30
2018-07-05T21:30:08.974Z,22.20
2018-07-05T21:32:48.891Z,22.20
2018-07-05T21:35:28.673Z,22.10
2018-07-05T21:38:08.395Z,22.00
2018-07-05T21:40:48.230Z,22.00
2018-07-05T21:43:28.771Z,21.90
2018-07-05T21:46:08.510Z,21.70
2018-07-05T21:48:48.268Z,21.60
2018-07-05T21:51:27.835Z,21.60
2018-07-05T21:54:08.478Z,21.40
2018-07-05T21:56:48.195Z,21.40
2018-07-05T21:59:27.912Z,21.30
2018-07-05T22:02:07.582Z,21.20
2018-07-05T22:04:47.161Z,21.10
2018-07-05T22:07:26.631Z,21.00
2018-07-05T22:12:39.859Z,20.80
2018-07-05T22:15:19.468Z,20.80
2018-07-05T22:18:04.471Z,20.70
2018-07-05T22:20:49.773Z,20.60
2018-07-05T22:23:34.895Z,20.50
2018-07-05T22:26:20.116Z,20.50
2018-07-05T22:32:37.914Z,20.40
2018-07-05T22:35:17.674Z,20.30
2018-07-05T22:37:57.251Z,20.20
2018-07-05T22:40:36.735Z,20.10
2018-07-05T22:43:16.374Z,20.00
2018-07-05T22:45:55.833Z,20.00
2018-07-05T22:48:35.317Z,19.90
2018-07-05T22:53:48.890Z,19.80
2018-07-05T22:56:28.629Z,19.80
2018-07-05T22:59:08.341Z,19.80
2018-07-05T23:01:47.962Z,19.70
2018-07-05T23:04:27.590Z,19.60
2018-07-05T23:07:07.092Z,19.50
2018-07-05T23:09:47.003Z,19.50
2018-07-05T23:12:26.640Z,19.50
2018-07-05T23:15:06.256Z,19.40
2018-07-05T23:17:46.296Z,19.40
2018-07-05T23:20:26.419Z,19.40
2018-07-05T23:23:06.269Z,19.30
2018-07-05T23:25:45.912Z,19.30
2018-07-05T23:30:59.239Z,19.20
2018-07-05T23:33:38.639Z,19.20
2018-07-05T23:38:51.925Z,19.00
2018-07-05T23:41:31.564Z,18.90
2018-07-05T23:49:18.407Z,18.90
2018-07-05T23:51:58.171Z,18.80
2018-07-05T23:54:37.659Z,18.90
2018-07-05T23:57:17.378Z,18.80
2018-07-05T23:59:56.780Z,18.80
